sensor_id;sensor_type;location;lat;lon;timestamp;temperature;humidity
9973;DHT22;5027;53.560;10.062;2023-03-22T00:02:06;12.10;99.90
9973;DHT22;5027;53.560;10.062;2023-03-22T00:04:33;12.10;99.90
9973;DHT22;5027;53.560;10.062;2023-03-22T00:07:00;12.10;99.90
9973;DHT22;5027;53.560;10.062;2023-03-22T00:09:26;12.20;99.90
9973;DHT22;5027;53.560;10.062;2023-03-22T00:11:53;12.10;99.90
9973;DHT22;5027;53.560;10.062;2023-03-22T00:14:20;12.10;99.90
9973;DHT22;5027;53.560;10.062;2023-03-22T00:16:46;12.20;99.90
9973;DHT22;5027;53.560;10.062;2023-03-22T00:19:14;12.30;99.90
9973;DHT22;5027;53.560;10.062;2023-03-22T00:21:42;12.20;99.90
9973;DHT22;5027;53.560;10.062;2023-03-22T00:24:08;12.20;99.90
9973;DHT22;5027;53.560;10.062;2023-03-22T00:26:35;12.20;99.90
9973;DHT22;5027;53.560;10.062;2023-03-22T00:29:02;12.30;99.90
9973;DHT22;5027;53.560;10.062;2023-03-22T00:31:29;12.20;99.90
9973;DHT22;5027;53.560;10.062;2023-03-22T00:33:56;12.30;99.90
9973;DHT22;5027;53.560;10.062;2023-03-22T00:36:22;12.30;99.90
9973;DHT22;5027;53.560;10.062;2023-03-22T00:38:51;12.20;99.90
9973;DHT22;5027;53.560;10.062;2023-03-22T00:41:22;12.20;99.90
9973;DHT22;5027;53.560;10.062;2023-03-22T00:43:49;12.20;99.90
9973;DHT22;5027;53.560;10.062;2023-03-22T00:46:18;12.20;99.90
9973;DHT22;5027;53.560;10.062;2023-03-22T00:48:45;12.30;99.90
9973;DHT22;5027;53.560;10.062;2023-03-22T00:51:13;12.20;99.90
9973;DHT22;5027;53.560;10.062;2023-03-22T00:53:40;12.20;99.90
9973;DHT22;5027;53.560;10.062;2023-03-22T00:56:10;12.30;99.90
9973;DHT22;5027;53.560;10.062;2023-03-22T00:58:58;12.30;99.90
9973;DHT22;5027;53.560;10.062;2023-03-22T01:01:26;12.30;99.90
9973;DHT22;5027;53.560;10.062;2023-03-22T01:03:53;12.30;99.90
9973;DHT22;5027;53.560;10.062;2023-03-22T01:06:20;12.30;99.90
9973;DHT22;5027;53.560;10.062;2023-03-22T01:08:47;12.20;99.90
9973;DHT22;5027;53.560;10.062;2023-03-22T01:11:16;12.20;99.90
9973;DHT22;5027;53.560;10.062;2023-03-22T01:13:43;12.20;99.90
9973;DHT22;5027;53.560;10.062;2023-03-22T01:16:10;12.10;99.90
9973;DHT22;5027;53.560;10.062;2023-03-22T01:18:37;12.20;99.90
9973;DHT22;5027;53.560;10.062;2023-03-22T01:21:05;12.10;99.90
9973;DHT22;5027;53.560;10.062;2023-03-22T01:23:33;12.10;99.90
9973;DHT22;5027;53.560;10.062;2023-03-22T01:25:59;12.10;99.90
9973;DHT22;5027;53.560;10.062;2023-03-22T01:28:28;12.10;99.90
9973;DHT22;5027;53.560;10.062;2023-03-22T01:30:55;12.10;99.90
9973;DHT22;5027;53.560;10.062;2023-03-22T01:33:25;12.10;99.90
9973;DHT22;5027;53.560;10.062;2023-03-22T01:35:52;12.10;99.90
9973;DHT22;5027;53.560;10.062;2023-03-22T01:38:19;12.10;99.90
9973;DHT22;5027;53.560;10.062;2023-03-22T01:40:52;12.10;99.90
9973;DHT22;5027;53.560;10.062;2023-03-22T01:43:19;12.10;99.90
9973;DHT22;5027;53.560;10.062;2023-03-22T01:45:51;12.10;99.90
9973;DHT22;5027;53.560;10.062;2023-03-22T01:48:26;12.10;99.90
9973;DHT22;5027;53.560;10.062;2023-03-22T01:51:08;12.20;99.90
9973;DHT22;5027;53.560;10.062;2023-03-22T01:53:48;12.20;99.90
9973;DHT22;5027;53.560;10.062;2023-03-22T01:56:18;12.20;99.90
9973;DHT22;5027;53.560;10.062;2023-03-22T01:58:47;12.20;99.90
9973;DHT22;5027;53.560;10.062;2023-03-22T02:01:20;12.20;99.90
9973;DHT22;5027;53.560;10.062;2023-03-22T02:03:54;12.10;99.90
9973;DHT22;5027;53.560;10.062;2023-03-22T02:06:23;12.20;99.90
9973;DHT22;5027;53.560;10.062;2023-03-22T02:08:57;12.20;99.90
9973;DHT22;5027;53.560;10.062;2023-03-22T02:11:33;12.10;99.90
9973;DHT22;5027;53.560;10.062;2023-03-22T02:17:25;12.20;99.90
9973;DHT22;5027;53.560;10.062;2023-03-22T02:20:22;12.30;99.90
9973;DHT22;5027;53.560;10.062;2023-03-22T02:23:22;12.20;99.90
9973;DHT22;5027;53.560;10.062;2023-03-22T02:28:56;12.20;99.90
9973;DHT22;5027;53.560;10.062;2023-03-22T02:31:40;12.30;99.90
9973;DHT22;5027;53.560;10.062;2023-03-22T02:39:57;12.40;99.90
9973;DHT22;5027;53.560;10.062;2023-03-22T02:43:03;12.40;99.90
9973;DHT22;5027;53.560;10.062;2023-03-22T02:45:45;12.30;99.90
9973;DHT22;5027;53.560;10.062;2023-03-22T02:48:29;12.40;99.90
9973;DHT22;5027;53.560;10.062;2023-03-22T02:51:07;12.30;99.90
9973;DHT22;5027;53.560;10.062;2023-03-22T02:53:56;12.20;99.90
9973;DHT22;5027;53.560;10.062;2023-03-22T02:59:47;12.20;99.90
9973;DHT22;5027;53.560;10.062;2023-03-22T03:02:15;12.30;99.90
9973;DHT22;5027;53.560;10.062;2023-03-22T03:04:46;12.20;99.90
9973;DHT22;5027;53.560;10.062;2023-03-22T03:07:17;12.10;99.90
9973;DHT22;5027;53.560;10.062;2023-03-22T03:09:45;12.10;99.90
9973;DHT22;5027;53.560;10.062;2023-03-22T03:12:16;12.20;99.90
9973;DHT22;5027;53.560;10.062;2023-03-22T03:14:44;12.10;99.90
9973;DHT22;5027;53.560;10.062;2023-03-22T03:20:31;12.10;99.90
9973;DHT22;5027;53.560;10.062;2023-03-22T03:23:23;12.10;99.90
9973;DHT22;5027;53.560;10.062;2023-03-22T03:26:03;12.10;99.90
9973;DHT22;5027;53.560;10.062;2023-03-22T03:28:51;12.00;99.90
9973;DHT22;5027;53.560;10.062;2023-03-22T03:31:34;12.00;99.90
9973;DHT22;5027;53.560;10.062;2023-03-22T03:34:19;12.00;99.90
9973;DHT22;5027;53.560;10.062;2023-03-22T03:36:58;12.10;99.90
9973;DHT22;5027;53.560;10.062;2023-03-22T03:39:27;12.10;99.90
9973;DHT22;5027;53.560;10.062;2023-03-22T03:41:56;12.10;99.90
9973;DHT22;5027;53.560;10.062;2023-03-22T03:44:25;12.00;99.90
9973;DHT22;5027;53.560;10.062;2023-03-22T03:46:53;12.10;99.90
9973;DHT22;5027;53.560;10.062;2023-03-22T03:49:21;12.10;99.90
9973;DHT22;5027;53.560;10.062;2023-03-22T03:51:53;12.10;99.90
9973;DHT22;5027;53.560;10.062;2023-03-22T03:54:22;12.20;99.90
9973;DHT22;5027;53.560;10.062;2023-03-22T03:56:48;12.10;99.90
9973;DHT22;5027;53.560;10.062;2023-03-22T03:59:17;12.10;99.90
9973;DHT22;5027;53.560;10.062;2023-03-22T04:01:46;12.00;99.90
9973;DHT22;5027;53.560;10.062;2023-03-22T04:04:26;12.20;99.90
9973;DHT22;5027;53.560;10.062;2023-03-22T04:07:04;12.10;99.90
9973;DHT22;5027;53.560;10.062;2023-03-22T04:09:36;12.10;99.90
9973;DHT22;5027;53.560;10.062;2023-03-22T04:12:14;12.10;99.90
9973;DHT22;5027;53.560;10.062;2023-03-22T04:14:46;12.20;99.90
9973;DHT22;5027;53.560;10.062;2023-03-22T04:17:21;12.10;99.90
9973;DHT22;5027;53.560;10.062;2023-03-22T04:19:49;12.20;99.90
9973;DHT22;5027;53.560;10.062;2023-03-22T04:22:23;12.20;99.90
9973;DHT22;5027;53.560;10.062;2023-03-22T04:24:50;12.20;99.90
9973;DHT22;5027;53.560;10.062;2023-03-22T04:27:20;12.20;99.90
9973;DHT22;5027;53.560;10.062;2023-03-22T04:29:54;12.10;99.90
9973;DHT22;5027;53.560;10.062;2023-03-22T04:32:50;12.10;99.90
9973;DHT22;5027;53.560;10.062;2023-03-22T04:35:21;12.10;99.90
9973;DHT22;5027;53.560;10.062;2023-03-22T04:37:52;12.10;99.90
9973;DHT22;5027;53.560;10.062;2023-03-22T04:40:20;12.10;99.90
9973;DHT22;5027;53.560;10.062;2023-03-22T04:42:57;12.10;99.90
9973;DHT22;5027;53.560;10.062;2023-03-22T04:45:35;12.10;99.90
9973;DHT22;5027;53.560;10.062;2023-03-22T04:48:04;12.10;99.90
9973;DHT22;5027;53.560;10.062;2023-03-22T04:50:33;12.10;99.90
9973;DHT22;5027;53.560;10.062;2023-03-22T04:53:02;12.20;99.90
9973;DHT22;5027;53.560;10.062;2023-03-22T04:55:30;12.10;99.90
9973;DHT22;5027;53.560;10.062;2023-03-22T04:58:00;12.10;99.90
9973;DHT22;5027;53.560;10.062;2023-03-22T05:00:27;12.10;99.90
9973;DHT22;5027;53.560;10.062;2023-03-22T05:02:56;12.10;99.90
9973;DHT22;5027;53.560;10.062;2023-03-22T05:05:31;12.20;99.90
9973;DHT22;5027;53.560;10.062;2023-03-22T05:07:59;12.20;99.90
9973;DHT22;5027;53.560;10.062;2023-03-22T05:10:26;12.10;99.90
9973;DHT22;5027;53.560;10.062;2023-03-22T05:12:56;12.10;99.90
9973;DHT22;5027;53.560;10.062;2023-03-22T05:15:26;12.10;99.90
9973;DHT22;5027;53.560;10.062;2023-03-22T05:17:53;12.20;99.90
9973;DHT22;5027;53.560;10.062;2023-03-22T05:20:21;12.30;99.90
9973;DHT22;5027;53.560;10.062;2023-03-22T05:23:00;12.30;99.90
9973;DHT22;5027;53.560;10.062;2023-03-22T05:25:29;12.20;99.90
9973;DHT22;5027;53.560;10.062;2023-03-22T05:27:57;12.20;99.90
9973;DHT22;5027;53.560;10.062;2023-03-22T05:30:42;12.10;99.90
9973;DHT22;5027;53.560;10.062;2023-03-22T05:33:21;12.10;99.90
9973;DHT22;5027;53.560;10.062;2023-03-22T05:35:53;12.10;99.90
9973;DHT22;5027;53.560;10.062;2023-03-22T05:38:20;12.10;99.90
9973;DHT22;5027;53.560;10.062;2023-03-22T05:40:51;12.10;99.90
9973;DHT22;5027;53.560;10.062;2023-03-22T05:43:18;12.10;99.90
9973;DHT22;5027;53.560;10.062;2023-03-22T05:45:48;12.10;99.90
9973;DHT22;5027;53.560;10.062;2023-03-22T05:48:28;12.10;99.90
9973;DHT22;5027;53.560;10.062;2023-03-22T05:50:55;12.20;99.90
9973;DHT22;5027;53.560;10.062;2023-03-22T05:53:22;12.20;99.90
9973;DHT22;5027;53.560;10.062;2023-03-22T05:55:56;12.20;99.90
9973;DHT22;5027;53.560;10.062;2023-03-22T05:58:29;12.20;99.90
9973;DHT22;5027;53.560;10.062;2023-03-22T06:00:57;12.30;99.90
9973;DHT22;5027;53.560;10.062;2023-03-22T06:03:47;12.20;99.90
9973;DHT22;5027;53.560;10.062;2023-03-22T06:06:27;12.20;99.90
9973;DHT22;5027;53.560;10.062;2023-03-22T06:09:11;12.20;99.90
9973;DHT22;5027;53.560;10.062;2023-03-22T06:11:47;12.30;99.90
9973;DHT22;5027;53.560;10.062;2023-03-22T06:14:15;12.30;99.90
9973;DHT22;5027;53.560;10.062;2023-03-22T06:16:56;12.30;99.90
9973;DHT22;5027;53.560;10.062;2023-03-22T06:19:22;12.30;99.90
9973;DHT22;5027;53.560;10.062;2023-03-22T06:21:53;12.30;99.90
9973;DHT22;5027;53.560;10.062;2023-03-22T06:24:22;12.30;99.90
9973;DHT22;5027;53.560;10.062;2023-03-22T06:26:49;12.30;99.90
9973;DHT22;5027;53.560;10.062;2023-03-22T06:29:16;12.20;99.90
9973;DHT22;5027;53.560;10.062;2023-03-22T06:31:43;12.20;99.90
9973;DHT22;5027;53.560;10.062;2023-03-22T06:34:10;12.20;99.90
9973;DHT22;5027;53.560;10.062;2023-03-22T06:36:40;12.20;99.90
9973;DHT22;5027;53.560;10.062;2023-03-22T06:39:14;12.20;99.90
9973;DHT22;5027;53.560;10.062;2023-03-22T06:41:43;12.30;99.90
9973;DHT22;5027;53.560;10.062;2023-03-22T06:44:10;12.30;99.90
9973;DHT22;5027;53.560;10.062;2023-03-22T06:46:48;12.20;99.90
9973;DHT22;5027;53.560;10.062;2023-03-22T06:49:34;12.20;99.90
9973;DHT22;5027;53.560;10.062;2023-03-22T06:52:01;12.20;99.90
9973;DHT22;5027;53.560;10.062;2023-03-22T06:54:29;12.30;99.90
9973;DHT22;5027;53.560;10.062;2023-03-22T06:56:55;12.30;99.90
9973;DHT22;5027;53.560;10.062;2023-03-22T06:59:22;12.30;99.90
9973;DHT22;5027;53.560;10.062;2023-03-22T07:01:49;12.30;99.90
9973;DHT22;5027;53.560;10.062;2023-03-22T07:04:16;12.30;99.90
9973;DHT22;5027;53.560;10.062;2023-03-22T07:06:45;12.30;99.90
9973;DHT22;5027;53.560;10.062;2023-03-22T07:09:12;12.30;99.90
9973;DHT22;5027;53.560;10.062;2023-03-22T07:11:39;12.40;99.90
9973;DHT22;5027;53.560;10.062;2023-03-22T07:14:07;12.40;99.90
9973;DHT22;5027;53.560;10.062;2023-03-22T07:17:13;12.40;99.90
9973;DHT22;5027;53.560;10.062;2023-03-22T07:19:39;12.50;99.90
9973;DHT22;5027;53.560;10.062;2023-03-22T07:22:10;12.40;99.90
9973;DHT22;5027;53.560;10.062;2023-03-22T07:24:36;12.40;99.90
9973;DHT22;5027;53.560;10.062;2023-03-22T07:27:16;12.40;99.90
9973;DHT22;5027;53.560;10.062;2023-03-22T07:29:43;12.50;99.90
9973;DHT22;5027;53.560;10.062;2023-03-22T07:32:10;12.40;99.90
9973;DHT22;5027;53.560;10.062;2023-03-22T07:35:00;12.40;99.90
9973;DHT22;5027;53.560;10.062;2023-03-22T07:37:27;12.40;99.90
9973;DHT22;5027;53.560;10.062;2023-03-22T07:39:54;12.40;99.90
9973;DHT22;5027;53.560;10.062;2023-03-22T07:42:21;12.30;99.90
9973;DHT22;5027;53.560;10.062;2023-03-22T07:45:20;12.30;99.90
9973;DHT22;5027;53.560;10.062;2023-03-22T07:48:13;12.30;99.90
9973;DHT22;5027;53.560;10.062;2023-03-22T07:50:56;12.40;99.90
9973;DHT22;5027;53.560;10.062;2023-03-22T07:53:24;12.40;99.90
9973;DHT22;5027;53.560;10.062;2023-03-22T07:55:52;12.40;99.90
9973;DHT22;5027;53.560;10.062;2023-03-22T07:58:19;12.40;99.90
9973;DHT22;5027;53.560;10.062;2023-03-22T08:00:46;12.30;99.90
9973;DHT22;5027;53.560;10.062;2023-03-22T08:03:34;12.40;99.90
9973;DHT22;5027;53.560;10.062;2023-03-22T08:06:14;12.40;99.90
9973;DHT22;5027;53.560;10.062;2023-03-22T08:08:42;12.40;99.90
9973;DHT22;5027;53.560;10.062;2023-03-22T08:11:09;12.40;99.90
9973;DHT22;5027;53.560;10.062;2023-03-22T08:13:38;12.40;99.90
9973;DHT22;5027;53.560;10.062;2023-03-22T08:16:08;12.50;99.90
9973;DHT22;5027;53.560;10.062;2023-03-22T08:18:34;12.50;99.90
9973;DHT22;5027;53.560;10.062;2023-03-22T08:21:01;12.50;99.90
9973;DHT22;5027;53.560;10.062;2023-03-22T08:23:32;12.50;99.90
9973;DHT22;5027;53.560;10.062;2023-03-22T08:26:26;12.50;99.90
9973;DHT22;5027;53.560;10.062;2023-03-22T08:28:55;12.60;99.90
9973;DHT22;5027;53.560;10.062;2023-03-22T08:31:22;12.50;99.90
9973;DHT22;5027;53.560;10.062;2023-03-22T08:33:49;12.40;99.90
9973;DHT22;5027;53.560;10.062;2023-03-22T08:36:18;12.50;99.90
9973;DHT22;5027;53.560;10.062;2023-03-22T08:38:52;12.50;99.90
9973;DHT22;5027;53.560;10.062;2023-03-22T08:41:26;12.50;99.90
9973;DHT22;5027;53.560;10.062;2023-03-22T08:43:53;12.50;99.90
9973;DHT22;5027;53.560;10.062;2023-03-22T08:46:20;12.50;99.90
9973;DHT22;5027;53.560;10.062;2023-03-22T08:48:47;12.60;99.90
9973;DHT22;5027;53.560;10.062;2023-03-22T08:51:23;12.70;99.90
9973;DHT22;5027;53.560;10.062;2023-03-22T08:54:08;12.70;99.90
9973;DHT22;5027;53.560;10.062;2023-03-22T08:56:53;12.80;99.90
9973;DHT22;5027;53.560;10.062;2023-03-22T08:59:40;12.80;99.90
9973;DHT22;5027;53.560;10.062;2023-03-22T09:02:21;12.90;99.90
9973;DHT22;5027;53.560;10.062;2023-03-22T09:04:48;12.90;99.90
9973;DHT22;5027;53.560;10.062;2023-03-22T09:07:16;12.90;99.90
9973;DHT22;5027;53.560;10.062;2023-03-22T09:09:50;13.00;99.90
9973;DHT22;5027;53.560;10.062;2023-03-22T09:12:17;13.00;99.90
9973;DHT22;5027;53.560;10.062;2023-03-22T09:14:44;13.00;99.90
9973;DHT22;5027;53.560;10.062;2023-03-22T09:17:12;13.20;99.90
9973;DHT22;5027;53.560;10.062;2023-03-22T09:19:39;13.20;99.90
9973;DHT22;5027;53.560;10.062;2023-03-22T09:22:05;13.20;99.90
9973;DHT22;5027;53.560;10.062;2023-03-22T09:24:40;13.30;99.90
9973;DHT22;5027;53.560;10.062;2023-03-22T09:27:07;13.30;99.90
9973;DHT22;5027;53.560;10.062;2023-03-22T09:29:34;13.40;99.90
9973;DHT22;5027;53.560;10.062;2023-03-22T09:32:05;13.40;99.90
9973;DHT22;5027;53.560;10.062;2023-03-22T09:34:34;13.40;99.90
9973;DHT22;5027;53.560;10.062;2023-03-22T09:37:02;13.40;99.90
9973;DHT22;5027;53.560;10.062;2023-03-22T09:39:40;13.40;99.90
9973;DHT22;5027;53.560;10.062;2023-03-22T09:42:32;13.40;99.90
9973;DHT22;5027;53.560;10.062;2023-03-22T09:45:03;13.40;99.90
9973;DHT22;5027;53.560;10.062;2023-03-22T09:47:38;13.40;99.90
9973;DHT22;5027;53.560;10.062;2023-03-22T09:50:25;13.40;99.90
9973;DHT22;5027;53.560;10.062;2023-03-22T09:52:53;13.40;99.90
9973;DHT22;5027;53.560;10.062;2023-03-22T09:55:55;13.40;99.90
9973;DHT22;5027;53.560;10.062;2023-03-22T09:58:35;13.40;99.90
9973;DHT22;5027;53.560;10.062;2023-03-22T10:01:11;13.40;99.90
9973;DHT22;5027;53.560;10.062;2023-03-22T10:03:49;13.40;99.90
9973;DHT22;5027;53.560;10.062;2023-03-22T10:06:24;13.40;99.90
9973;DHT22;5027;53.560;10.062;2023-03-22T10:09:05;13.40;99.90
9973;DHT22;5027;53.560;10.062;2023-03-22T10:12:19;13.40;99.90
9973;DHT22;5027;53.560;10.062;2023-03-22T10:14:39;13.50;99.90
9973;DHT22;5027;53.560;10.062;2023-03-22T10:17:15;13.50;99.90
9973;DHT22;5027;53.560;10.062;2023-03-22T10:19:47;13.50;99.90
9973;DHT22;5027;53.560;10.062;2023-03-22T10:22:17;13.50;99.90
9973;DHT22;5027;53.560;10.062;2023-03-22T10:24:45;13.60;99.90
9973;DHT22;5027;53.560;10.062;2023-03-22T10:27:17;13.60;99.90
9973;DHT22;5027;53.560;10.062;2023-03-22T10:30:16;13.60;99.90
9973;DHT22;5027;53.560;10.062;2023-03-22T10:32:49;13.60;99.90
9973;DHT22;5027;53.560;10.062;2023-03-22T10:35:24;13.50;99.90
9973;DHT22;5027;53.560;10.062;2023-03-22T10:37:52;13.60;99.90
9973;DHT22;5027;53.560;10.062;2023-03-22T10:40:29;13.50;99.90
9973;DHT22;5027;53.560;10.062;2023-03-22T10:45:31;13.60;99.90
9973;DHT22;5027;53.560;10.062;2023-03-22T10:47:59;13.60;99.90
9973;DHT22;5027;53.560;10.062;2023-03-22T10:50:34;13.60;99.90
9973;DHT22;5027;53.560;10.062;2023-03-22T10:56:08;13.70;99.90
9973;DHT22;5027;53.560;10.062;2023-03-22T10:58:36;13.70;99.90
9973;DHT22;5027;53.560;10.062;2023-03-22T11:01:30;13.70;99.90
9973;DHT22;5027;53.560;10.062;2023-03-22T11:04:14;13.80;99.90
9973;DHT22;5027;53.560;10.062;2023-03-22T11:06:49;13.80;99.90
9973;DHT22;5027;53.560;10.062;2023-03-22T11:09:21;13.90;99.90
9973;DHT22;5027;53.560;10.062;2023-03-22T11:11:56;13.80;99.90
9973;DHT22;5027;53.560;10.062;2023-03-22T11:17:00;13.90;99.90
9973;DHT22;5027;53.560;10.062;2023-03-22T11:19:32;13.90;99.90
9973;DHT22;5027;53.560;10.062;2023-03-22T11:21:59;14.00;99.90
9973;DHT22;5027;53.560;10.062;2023-03-22T11:24:30;14.00;99.90
9973;DHT22;5027;53.560;10.062;2023-03-22T11:27:05;13.90;99.90
9973;DHT22;5027;53.560;10.062;2023-03-22T11:29:43;13.90;99.90
9973;DHT22;5027;53.560;10.062;2023-03-22T11:32:35;13.90;99.90
9973;DHT22;5027;53.560;10.062;2023-03-22T11:35:23;13.90;99.90
9973;DHT22;5027;53.560;10.062;2023-03-22T11:37:54;13.90;99.90
9973;DHT22;5027;53.560;10.062;2023-03-22T11:40:23;13.90;99.90
9973;DHT22;5027;53.560;10.062;2023-03-22T11:43:17;13.90;99.90
9973;DHT22;5027;53.560;10.062;2023-03-22T11:45:48;13.90;99.90
9973;DHT22;5027;53.560;10.062;2023-03-22T11:48:21;13.80;99.90
9973;DHT22;5027;53.560;10.062;2023-03-22T11:50:52;13.80;99.90
9973;DHT22;5027;53.560;10.062;2023-03-22T11:53:24;13.90;99.90
9973;DHT22;5027;53.560;10.062;2023-03-22T11:55:54;13.80;99.90
9973;DHT22;5027;53.560;10.062;2023-03-22T12:01:03;13.80;99.90
9973;DHT22;5027;53.560;10.062;2023-03-22T12:03:34;13.80;99.90
9973;DHT22;5027;53.560;10.062;2023-03-22T12:06:21;13.80;99.90
9973;DHT22;5027;53.560;10.062;2023-03-22T12:08:54;13.90;99.90
9973;DHT22;5027;53.560;10.062;2023-03-22T12:11:37;13.80;99.90
9973;DHT22;5027;53.560;10.062;2023-03-22T12:14:21;13.80;99.90
9973;DHT22;5027;53.560;10.062;2023-03-22T12:16:51;13.80;99.90
9973;DHT22;5027;53.560;10.062;2023-03-22T12:19:50;13.90;99.90
9973;DHT22;5027;53.560;10.062;2023-03-22T12:22:27;13.90;99.90
9973;DHT22;5027;53.560;10.062;2023-03-22T12:24:54;13.80;99.90
9973;DHT22;5027;53.560;10.062;2023-03-22T12:27:26;13.80;99.90
9973;DHT22;5027;53.560;10.062;2023-03-22T12:30:19;13.80;99.90
9973;DHT22;5027;53.560;10.062;2023-03-22T12:32:56;13.90;99.90
9973;DHT22;5027;53.560;10.062;2023-03-22T12:35:28;13.90;99.90
9973;DHT22;5027;53.560;10.062;2023-03-22T12:37:58;13.90;99.90
9973;DHT22;5027;53.560;10.062;2023-03-22T12:40:36;14.10;99.90
9973;DHT22;5027;53.560;10.062;2023-03-22T12:45:52;14.20;99.90
9973;DHT22;5027;53.560;10.062;2023-03-22T12:48:42;14.10;99.90
9973;DHT22;5027;53.560;10.062;2023-03-22T12:51:13;14.00;99.90
9973;DHT22;5027;53.560;10.062;2023-03-22T12:53:49;14.00;99.90
9973;DHT22;5027;53.560;10.062;2023-03-22T12:56:20;13.90;99.90
9973;DHT22;5027;53.560;10.062;2023-03-22T12:58:50;14.00;99.90
9973;DHT22;5027;53.560;10.062;2023-03-22T13:01:29;14.00;99.90
9973;DHT22;5027;53.560;10.062;2023-03-22T13:03:57;14.10;99.90
9973;DHT22;5027;53.560;10.062;2023-03-22T13:09:18;13.90;99.90
9973;DHT22;5027;53.560;10.062;2023-03-22T13:15:27;13.90;99.90
9973;DHT22;5027;53.560;10.062;2023-03-22T13:17:57;13.90;99.90
9973;DHT22;5027;53.560;10.062;2023-03-22T13:20:25;13.90;99.90
9973;DHT22;5027;53.560;10.062;2023-03-22T13:25:28;13.90;99.90
9973;DHT22;5027;53.560;10.062;2023-03-22T13:27:57;13.90;99.90
9973;DHT22;5027;53.560;10.062;2023-03-22T13:30:50;13.90;99.90
9973;DHT22;5027;53.560;10.062;2023-03-22T13:33:23;14.00;99.90
9973;DHT22;5027;53.560;10.062;2023-03-22T13:36:00;14.00;99.90
9973;DHT22;5027;53.560;10.062;2023-03-22T13:38:42;14.00;99.90
9973;DHT22;5027;53.560;10.062;2023-03-22T13:41:26;14.20;99.90
9973;DHT22;5027;53.560;10.062;2023-03-22T13:43:55;13.90;99.90
9973;DHT22;5027;53.560;10.062;2023-03-22T13:46:41;13.90;99.90
9973;DHT22;5027;53.560;10.062;2023-03-22T13:52:01;14.00;99.90
9973;DHT22;5027;53.560;10.062;2023-03-22T13:54:42;14.00;99.90
9973;DHT22;5027;53.560;10.062;2023-03-22T13:57:16;14.00;99.90
9973;DHT22;5027;53.560;10.062;2023-03-22T14:00:18;13.90;99.90
9973;DHT22;5027;53.560;10.062;2023-03-22T14:02:47;13.80;99.90
9973;DHT22;5027;53.560;10.062;2023-03-22T14:05:17;13.80;99.90
9973;DHT22;5027;53.560;10.062;2023-03-22T14:07:52;13.70;99.90
9973;DHT22;5027;53.560;10.062;2023-03-22T14:10:24;13.70;99.90
9973;DHT22;5027;53.560;10.062;2023-03-22T14:13:04;13.80;99.90
9973;DHT22;5027;53.560;10.062;2023-03-22T14:15:40;13.90;99.90
9973;DHT22;5027;53.560;10.062;2023-03-22T14:18:24;13.80;99.90
9973;DHT22;5027;53.560;10.062;2023-03-22T14:20:57;13.80;99.90
9973;DHT22;5027;53.560;10.062;2023-03-22T14:23:38;13.90;99.90
9973;DHT22;5027;53.560;10.062;2023-03-22T14:26:53;13.70;99.90
9973;DHT22;5027;53.560;10.062;2023-03-22T14:28:53;13.70;99.90
9973;DHT22;5027;53.560;10.062;2023-03-22T14:31:29;13.80;99.90
9973;DHT22;5027;53.560;10.062;2023-03-22T14:34:00;13.90;99.90
9973;DHT22;5027;53.560;10.062;2023-03-22T14:36:28;13.90;99.90
9973;DHT22;5027;53.560;10.062;2023-03-22T14:39:10;13.80;99.90
9973;DHT22;5027;53.560;10.062;2023-03-22T14:41:36;13.70;99.90
9973;DHT22;5027;53.560;10.062;2023-03-22T14:44:02;13.80;99.90
9973;DHT22;5027;53.560;10.062;2023-03-22T14:46:35;13.70;99.90
9973;DHT22;5027;53.560;10.062;2023-03-22T14:49:03;13.80;99.90
9973;DHT22;5027;53.560;10.062;2023-03-22T14:51:38;13.80;99.90
9973;DHT22;5027;53.560;10.062;2023-03-22T14:54:08;13.70;99.90
9973;DHT22;5027;53.560;10.062;2023-03-22T14:56:38;13.70;99.90
9973;DHT22;5027;53.560;10.062;2023-03-22T14:59:06;13.50;99.90
9973;DHT22;5027;53.560;10.062;2023-03-22T15:01:54;13.70;99.90
9973;DHT22;5027;53.560;10.062;2023-03-22T15:04:21;13.60;99.90
9973;DHT22;5027;53.560;10.062;2023-03-22T15:06:57;13.80;99.90
9973;DHT22;5027;53.560;10.062;2023-03-22T15:09:24;13.70;99.90
9973;DHT22;5027;53.560;10.062;2023-03-22T15:11:55;14.00;99.90
9973;DHT22;5027;53.560;10.062;2023-03-22T15:14:23;13.80;99.90
9973;DHT22;5027;53.560;10.062;2023-03-22T15:16:49;13.70;99.90
9973;DHT22;5027;53.560;10.062;2023-03-22T15:19:17;13.60;99.90
9973;DHT22;5027;53.560;10.062;2023-03-22T15:21:44;13.70;99.90
9973;DHT22;5027;53.560;10.062;2023-03-22T15:26:37;13.70;99.90
9973;DHT22;5027;53.560;10.062;2023-03-22T15:29:10;13.60;99.90
9973;DHT22;5027;53.560;10.062;2023-03-22T15:31:44;13.80;99.90
9973;DHT22;5027;53.560;10.062;2023-03-22T15:34:18;13.70;99.90
9973;DHT22;5027;53.560;10.062;2023-03-22T15:36:48;13.80;99.90
9973;DHT22;5027;53.560;10.062;2023-03-22T15:39:38;13.90;99.90
9973;DHT22;5027;53.560;10.062;2023-03-22T15:42:26;13.80;99.90
9973;DHT22;5027;53.560;10.062;2023-03-22T15:45:12;13.80;99.90
9973;DHT22;5027;53.560;10.062;2023-03-22T15:47:48;14.10;99.90
9973;DHT22;5027;53.560;10.062;2023-03-22T15:50:17;13.90;99.90
9973;DHT22;5027;53.560;10.062;2023-03-22T15:52:57;13.80;99.90
9973;DHT22;5027;53.560;10.062;2023-03-22T15:57:58;13.80;99.90
9973;DHT22;5027;53.560;10.062;2023-03-22T16:00:37;13.70;99.90
9973;DHT22;5027;53.560;10.062;2023-03-22T16:05:34;14.00;99.90
9973;DHT22;5027;53.560;10.062;2023-03-22T16:08:01;13.90;99.90
9973;DHT22;5027;53.560;10.062;2023-03-22T16:10:30;14.00;99.90
9973;DHT22;5027;53.560;10.062;2023-03-22T16:12:56;14.10;99.90
9973;DHT22;5027;53.560;10.062;2023-03-22T16:15:27;14.00;99.90
9973;DHT22;5027;53.560;10.062;2023-03-22T16:17:52;14.00;99.90
9973;DHT22;5027;53.560;10.062;2023-03-22T16:20:18;13.90;99.90
9973;DHT22;5027;53.560;10.062;2023-03-22T16:22:46;13.80;99.90
9973;DHT22;5027;53.560;10.062;2023-03-22T16:25:19;13.80;99.90
9973;DHT22;5027;53.560;10.062;2023-03-22T16:27:45;13.70;99.90
9973;DHT22;5027;53.560;10.062;2023-03-22T16:30:12;14.00;99.90
9973;DHT22;5027;53.560;10.062;2023-03-22T16:32:39;13.80;99.90
9973;DHT22;5027;53.560;10.062;2023-03-22T16:35:05;13.80;99.90
9973;DHT22;5027;53.560;10.062;2023-03-22T16:37:39;13.70;99.90
9973;DHT22;5027;53.560;10.062;2023-03-22T16:40:05;13.80;99.90
9973;DHT22;5027;53.560;10.062;2023-03-22T16:42:30;14.10;99.90
9973;DHT22;5027;53.560;10.062;2023-03-22T16:44:56;13.80;99.90
9973;DHT22;5027;53.560;10.062;2023-03-22T16:47:24;13.80;99.90
9973;DHT22;5027;53.560;10.062;2023-03-22T16:49:52;14.20;99.90
9973;DHT22;5027;53.560;10.062;2023-03-22T16:52:21;14.10;99.90
9973;DHT22;5027;53.560;10.062;2023-03-22T16:54:50;14.00;99.90
9973;DHT22;5027;53.560;10.062;2023-03-22T16:57:19;13.90;99.90
9973;DHT22;5027;53.560;10.062;2023-03-22T16:59:45;13.60;99.90
9973;DHT22;5027;53.560;10.062;2023-03-22T17:02:24;13.50;99.90
9973;DHT22;5027;53.560;10.062;2023-03-22T17:04:52;13.80;99.90
9973;DHT22;5027;53.560;10.062;2023-03-22T17:07:22;14.00;99.90
9973;DHT22;5027;53.560;10.062;2023-03-22T17:09:50;13.80;99.90
9973;DHT22;5027;53.560;10.062;2023-03-22T17:12:25;13.50;99.90
9973;DHT22;5027;53.560;10.062;2023-03-22T17:14:51;13.70;99.90